createdAt,value
2022-07-31T00:02:46.824Z,13.50
2022-07-31T00:05:50.495Z,14.00
2022-07-31T00:08:54.170Z,13.43
2022-07-31T00:11:57.815Z,14.43
2022-07-31T00:15:01.728Z,13.07
2022-07-31T00:18:08.821Z,13.87
2022-07-31T00:21:14.127Z,13.80
2022-07-31T00:24:17.695Z,12.93
2022-07-31T00:27:21.334Z,12.27
2022-07-31T00:30:25.025Z,13.00
2022-07-31T00:33:30.076Z,12.93
2022-07-31T00:36:33.901Z,13.47
2022-07-31T00:39:38.514Z,14.60
2022-07-31T00:42:42.433Z,15.50
2022-07-31T00:45:47.026Z,14.73
2022-07-31T00:49:03.821Z,13.10
2022-07-31T00:52:08.407Z,13.23
2022-07-31T00:55:12.258Z,12.97
2022-07-31T00:58:15.995Z,12.67
2022-07-31T01:01:19.601Z,12.83
2022-07-31T01:04:26.309Z,13.53
2022-07-31T01:07:30.978Z,12.90
2022-07-31T01:10:49.636Z,12.17
2022-07-31T01:13:58.009Z,12.27
2022-07-31T01:17:04.980Z,12.47
2022-07-31T01:20:14.073Z,12.57
2022-07-31T01:23:50.145Z,11.30
2022-07-31T01:27:05.615Z,11.47
2022-07-31T01:30:11.725Z,11.83
2022-07-31T01:33:21.327Z,11.83
2022-07-31T01:36:34.690Z,12.00
2022-07-31T01:39:41.977Z,11.37
2022-07-31T01:43:08.455Z,11.67
2022-07-31T01:46:18.279Z,11.60
2022-07-31T01:49:25.085Z,11.50
2022-07-31T01:52:33.677Z,10.93
2022-07-31T01:56:01.871Z,10.73
2022-07-31T01:59:20.572Z,10.73
2022-07-31T02:02:31.167Z,12.13
2022-07-31T02:05:38.150Z,10.87
2022-07-31T02:08:45.020Z,11.70
2022-07-31T02:11:54.663Z,10.47
2022-07-31T02:14:59.619Z,11.40
2022-07-31T02:18:06.147Z,12.00
2022-07-31T02:21:10.285Z,12.10
2022-07-31T02:24:14.520Z,12.50
2022-07-31T02:27:57.308Z,12.97
2022-07-31T02:30:48.052Z,13.07
2022-07-31T02:33:54.855Z,12.83
2022-07-31T02:37:01.512Z,13.70
2022-07-31T02:40:09.056Z,13.30
2022-07-31T02:43:14.229Z,13.00
2022-07-31T02:46:19.334Z,13.03
2022-07-31T02:49:25.004Z,11.93
2022-07-31T02:52:29.795Z,12.00
2022-07-31T02:55:34.771Z,12.67
2022-07-31T02:58:41.965Z,12.93
2022-07-31T03:01:45.811Z,12.10
2022-07-31T03:04:51.419Z,12.73
2022-07-31T03:07:55.076Z,13.63
2022-07-31T03:10:58.911Z,13.27
2022-07-31T03:14:05.659Z,14.23
2022-07-31T03:17:11.546Z,13.67
2022-07-31T03:20:18.121Z,13.13
2022-07-31T03:23:24.958Z,13.20
2022-07-31T03:26:29.753Z,13.07
2022-07-31T03:29:43.202Z,11.83
2022-07-31T03:32:47.502Z,12.07
2022-07-31T03:35:53.405Z,13.33
2022-07-31T03:38:57.161Z,11.90
2022-07-31T03:42:04.028Z,11.83
2022-07-31T03:45:10.881Z,12.30
2022-07-31T03:48:15.501Z,12.07
2022-07-31T03:51:20.945Z,11.70
2022-07-31T03:54:24.610Z,12.83
2022-07-31T03:57:31.508Z,12.23
2022-07-31T04:00:38.746Z,12.23
2022-07-31T04:03:42.388Z,11.10
2022-07-31T04:06:47.355Z,11.50
2022-07-31T04:09:51.509Z,13.30
2022-07-31T04:12:55.753Z,12.50
2022-07-31T04:15:59.443Z,12.20
2022-07-31T04:19:03.035Z,11.97
2022-07-31T04:22:09.227Z,12.30
2022-07-31T04:25:13.039Z,12.17
2022-07-31T04:28:16.732Z,12.30
2022-07-31T04:31:20.375Z,12.13
2022-07-31T04:34:24.089Z,11.60
2022-07-31T04:37:29.020Z,11.73
2022-07-31T04:40:32.665Z,11.20
2022-07-31T04:43:36.299Z,10.73
2022-07-31T04:46:40.083Z,11.63
2022-07-31T04:49:43.805Z,12.00
2022-07-31T04:52:48.911Z,12.90
2022-07-31T04:56:06.423Z,13.10
2022-07-31T04:59:13.114Z,12.97
2022-07-31T05:02:16.906Z,13.13
2022-07-31T05:05:20.875Z,12.87
2022-07-31T05:08:25.895Z,13.47
2022-07-31T05:11:29.819Z,13.47
2022-07-31T05:14:33.440Z,14.97
2022-07-31T05:17:37.198Z,15.27
2022-07-31T05:20:40.855Z,14.93
2022-07-31T05:23:47.846Z,14.40
2022-07-31T05:26:51.495Z,13.77
2022-07-31T05:29:55.296Z,14.80
2022-07-31T05:32:59.486Z,14.40
2022-07-31T05:36:04.490Z,13.93
2022-07-31T05:39:09.784Z,14.67
2022-07-31T05:42:13.488Z,14.70
2022-07-31T05:45:17.092Z,15.73
2022-07-31T05:48:20.771Z,15.87
2022-07-31T05:51:24.366Z,14.83
2022-07-31T05:54:29.432Z,15.50
2022-07-31T05:57:34.335Z,15.80
2022-07-31T06:00:39.573Z,15.40
2022-07-31T06:03:51.587Z,14.83
2022-07-31T06:06:56.224Z,15.03
2022-07-31T06:10:02.559Z,14.00
2022-07-31T06:13:06.703Z,12.93
2022-07-31T06:16:14.786Z,12.67
2022-07-31T06:19:24.546Z,11.77
2022-07-31T06:22:28.541Z,11.87
2022-07-31T06:25:35.561Z,11.73
2022-07-31T06:28:47.663Z,10.13
2022-07-31T06:31:52.715Z,8.87
2022-07-31T06:34:56.364Z,9.30
2022-07-31T06:37:59.918Z,6.00
2022-07-31T06:41:04.983Z,5.53
2022-07-31T06:44:09.059Z,5.40
2022-07-31T06:47:15.981Z,5.20
2022-07-31T06:50:20.116Z,5.17
2022-07-31T06:53:23.775Z,5.23
2022-07-31T06:56:28.979Z,4.37
2022-07-31T06:59:39.925Z,4.10
2022-07-31T07:02:44.446Z,3.93
2022-07-31T07:05:48.135Z,4.17
2022-07-31T07:08:52.364Z,3.93
2022-07-31T07:11:57.430Z,3.67
2022-07-31T07:15:01.042Z,3.30
2022-07-31T07:18:04.761Z,3.63
2022-07-31T07:21:08.445Z,3.73
2022-07-31T07:24:12.952Z,3.70
2022-07-31T07:27:17.970Z,4.00
2022-07-31T07:30:25.232Z,4.10
2022-07-31T07:33:40.753Z,5.00
2022-07-31T07:36:45.662Z,4.70
2022-07-31T07:39:49.427Z,4.57
2022-07-31T07:42:54.550Z,4.07
2022-07-31T07:45:58.241Z,4.87
2022-07-31T07:49:02.823Z,5.37
2022-07-31T07:52:06.729Z,5.53
2022-07-31T07:55:12.599Z,5.30
2022-07-31T07:58:17.893Z,5.27
2022-07-31T08:01:21.528Z,4.87
2022-07-31T08:04:25.305Z,5.33
2022-07-31T08:07:42.453Z,6.03
2022-07-31T08:10:47.194Z,5.17
2022-07-31T08:13:52.355Z,5.50
2022-07-31T08:16:57.021Z,6.07
2022-07-31T08:20:01.292Z,5.37
2022-07-31T08:23:04.972Z,5.90
2022-07-31T08:26:09.554Z,6.00
2022-07-31T08:29:14.606Z,6.27
2022-07-31T08:32:19.372Z,5.30
2022-07-31T08:35:22.995Z,5.30
2022-07-31T08:38:26.742Z,5.37
2022-07-31T08:41:30.537Z,5.63
2022-07-31T08:44:37.603Z,5.37
2022-07-31T08:47:48.288Z,5.10
2022-07-31T08:50:54.801Z,4.50
2022-07-31T08:54:00.472Z,4.23
2022-07-31T08:57:05.307Z,3.40
2022-07-31T09:00:21.707Z,3.30
2022-07-31T09:03:25.752Z,3.27
2022-07-31T09:06:29.398Z,3.20
2022-07-31T09:09:50.943Z,3.50
2022-07-31T09:12:57.127Z,3.33
2022-07-31T09:16:03.727Z,3.00
2022-07-31T09:19:52.350Z,3.27
2022-07-31T09:22:33.949Z,2.30
2022-07-31T09:25:38.023Z,2.10
2022-07-31T09:28:44.926Z,2.37
2022-07-31T09:31:49.953Z,2.10
2022-07-31T09:34:53.672Z,2.40
2022-07-31T09:37:57.369Z,1.93
2022-07-31T09:41:26.806Z,2.13
2022-07-31T09:44:42.176Z,2.10
2022-07-31T09:47:48.491Z,2.57
2022-07-31T09:50:55.933Z,2.73
2022-07-31T09:53:59.744Z,2.60
2022-07-31T09:57:13.463Z,2.53
2022-07-31T10:00:17.608Z,2.40
2022-07-31T10:03:25.851Z,2.60
2022-07-31T10:06:35.952Z,2.33
2022-07-31T10:09:42.120Z,2.23
2022-07-31T10:12:52.293Z,2.13
2022-07-31T10:16:00.977Z,2.50
2022-07-31T10:19:11.574Z,3.13
2022-07-31T10:22:21.328Z,2.63
2022-07-31T10:25:29.563Z,2.30
2022-07-31T10:28:34.499Z,2.80
2022-07-31T10:31:38.916Z,2.60
2022-07-31T10:34:44.528Z,2.93
2022-07-31T10:38:00.179Z,2.47
2022-07-31T10:41:22.009Z,2.50
2022-07-31T10:44:38.730Z,2.90
2022-07-31T10:47:53.776Z,2.70
2022-07-31T10:51:07.406Z,2.43
2022-07-31T10:54:11.646Z,2.70
2022-07-31T10:57:24.228Z,2.10
2022-07-31T11:00:30.590Z,2.33
2022-07-31T11:03:41.907Z,2.40
2022-07-31T11:06:48.707Z,2.13
2022-07-31T11:09:53.167Z,2.67
2022-07-31T11:13:05.167Z,2.20
2022-07-31T11:16:08.979Z,2.23
2022-07-31T11:19:13.488Z,2.20
2022-07-31T11:22:31.454Z,2.00
2022-07-31T11:25:38.851Z,2.23
2022-07-31T11:28:45.993Z,2.30
2022-07-31T11:31:49.639Z,2.60
2022-07-31T11:34:55.266Z,2.80
2022-07-31T11:38:01.316Z,2.67
2022-07-31T11:41:06.084Z,2.70
2022-07-31T11:44:10.464Z,2.37
2022-07-31T11:47:55.991Z,2.47
2022-07-31T11:50:42.192Z,2.17
2022-07-31T11:53:56.679Z,2.33
2022-07-31T11:57:01.679Z,2.63
2022-07-31T12:00:29.132Z,2.80
2022-07-31T12:03:36.502Z,2.63
2022-07-31T12:06:40.594Z,2.53
2022-07-31T12:10:00.738Z,2.60
2022-07-31T12:13:15.612Z,2.33
2022-07-31T12:16:20.026Z,2.50
2022-07-31T12:19:29.404Z,2.40
2022-07-31T12:22:32.968Z,2.50
2022-07-31T12:25:46.973Z,2.70
2022-07-31T12:29:00.134Z,2.50
2022-07-31T12:32:05.236Z,2.23
2022-07-31T12:35:09.792Z,1.90
2022-07-31T12:38:40.798Z,2.43
2022-07-31T12:41:47.829Z,2.20
2022-07-31T12:44:53.618Z,2.20
2022-07-31T12:47:57.391Z,2.50
2022-07-31T12:51:01.529Z,3.00
2022-07-31T12:54:06.347Z,2.87
2022-07-31T12:57:11.603Z,2.77
2022-07-31T13:00:18.325Z,3.13
2022-07-31T13:03:22.082Z,3.67
2022-07-31T13:06:28.076Z,3.93
2022-07-31T13:09:32.027Z,4.23
2022-07-31T13:12:37.059Z,5.70
2022-07-31T13:15:40.782Z,6.00
2022-07-31T13:18:44.466Z,5.90
2022-07-31T13:21:50.259Z,5.80
2022-07-31T13:24:53.967Z,6.87
2022-07-31T13:27:59.136Z,8.40
2022-07-31T13:31:03.325Z,8.67
2022-07-31T13:34:07.074Z,9.10
2022-07-31T13:37:10.741Z,9.30
2022-07-31T13:40:14.847Z,8.80
2022-07-31T13:43:19.690Z,7.90
2022-07-31T13:46:24.874Z,8.70
2022-07-31T13:49:32.199Z,7.43
2022-07-31T13:52:36.006Z,8.03
2022-07-31T13:55:39.875Z,7.33
2022-07-31T13:58:45.256Z,6.97
2022-07-31T14:02:04.241Z,6.77
2022-07-31T14:05:10.079Z,7.57
2022-07-31T14:08:33.108Z,7.23
2022-07-31T14:11:39.965Z,7.93
2022-07-31T14:14:44.973Z,9.13
2022-07-31T14:17:48.645Z,9.13
2022-07-31T14:20:52.847Z,9.50
2022-07-31T14:23:57.203Z,8.80
2022-07-31T14:27:00.829Z,10.10
2022-07-31T14:30:14.033Z,10.40
2022-07-31T14:33:23.948Z,10.30
2022-07-31T14:36:27.567Z,9.53
2022-07-31T14:39:31.213Z,10.13
2022-07-31T14:42:34.961Z,9.20
2022-07-31T14:45:51.707Z,9.13
2022-07-31T14:48:55.640Z,9.73
2022-07-31T14:51:59.246Z,10.40
2022-07-31T14:55:04.045Z,10.57
2022-07-31T14:58:07.988Z,10.07
2022-07-31T15:01:16.016Z,11.33
2022-07-31T15:04:19.811Z,11.47
2022-07-31T15:07:45.821Z,11.77
2022-07-31T15:10:47.252Z,11.53
2022-07-31T15:13:50.906Z,12.33
2022-07-31T15:16:56.096Z,12.93
2022-07-31T15:20:00.958Z,13.63
2022-07-31T15:23:05.290Z,12.77
2022-07-31T15:26:09.176Z,12.43
2022-07-31T15:29:12.875Z,12.77
2022-07-31T15:32:18.073Z,13.93
2022-07-31T15:35:21.888Z,14.27
2022-07-31T15:38:25.695Z,15.43
2022-07-31T15:41:29.350Z,16.23
2022-07-31T15:44:36.163Z,17.23
2022-07-31T15:47:43.227Z,18.17
2022-07-31T15:50:47.090Z,18.57
2022-07-31T15:53:50.790Z,19.70
2022-07-31T15:56:54.445Z,20.43
2022-07-31T15:59:58.171Z,22.43
2022-07-31T16:03:04.563Z,22.33
2022-07-31T16:06:08.403Z,22.83
2022-07-31T16:09:19.676Z,23.90
2022-07-31T16:12:24.063Z,23.87
2022-07-31T16:15:27.707Z,24.20
2022-07-31T16:18:33.219Z,24.63
2022-07-31T16:21:37.040Z,25.13
2022-07-31T16:24:41.861Z,25.60
2022-07-31T16:27:45.499Z,26.77
2022-07-31T16:30:49.161Z,27.90
2022-07-31T16:33:54.187Z,27.97
2022-07-31T16:36:57.853Z,26.23
2022-07-31T16:40:01.669Z,20.83
2022-07-31T16:43:48.684Z,18.73
2022-07-31T16:46:33.164Z,18.53
2022-07-31T16:49:38.744Z,17.00
2022-07-31T16:52:42.480Z,17.60
2022-07-31T16:56:00.825Z,18.43
2022-07-31T16:59:07.067Z,18.07
2022-07-31T17:02:11.503Z,21.27
2022-07-31T17:05:17.257Z,18.93
2022-07-31T17:08:20.934Z,17.37
2022-07-31T17:11:24.679Z,18.07
2022-07-31T17:14:29.269Z,18.47
2022-07-31T17:17:33.011Z,19.80
2022-07-31T17:20:39.444Z,19.70
2022-07-31T17:23:51.066Z,18.63
2022-07-31T17:26:55.351Z,20.07
2022-07-31T17:29:58.988Z,19.60
2022-07-31T17:33:02.675Z,19.37
2022-07-31T17:36:08.512Z,18.83
2022-07-31T17:39:12.392Z,19.00
2022-07-31T17:42:18.126Z,17.53
2022-07-31T17:45:26.856Z,17.83
2022-07-31T17:48:51.055Z,18.57
2022-07-31T17:51:59.831Z,17.60
2022-07-31T17:55:04.631Z,16.23
2022-07-31T17:58:08.920Z,16.77
2022-07-31T18:01:12.780Z,18.60
2022-07-31T18:04:17.078Z,17.93
2022-07-31T18:07:24.207Z,17.27
2022-07-31T18:10:51.808Z,17.30
2022-07-31T18:13:54.147Z,16.30
2022-07-31T18:16:59.192Z,17.60
2022-07-31T18:20:05.186Z,17.20
2022-07-31T18:23:10.446Z,15.87
2022-07-31T18:26:14.152Z,15.60
2022-07-31T18:29:18.890Z,16.53
2022-07-31T18:32:22.816Z,16.83
2022-07-31T18:35:26.497Z,16.90
2022-07-31T18:38:31.667Z,17.17
2022-07-31T18:41:35.998Z,16.10
2022-07-31T18:44:39.654Z,16.10
2022-07-31T18:47:43.311Z,16.83
2022-07-31T18:51:00.122Z,16.00
2022-07-31T18:54:09.019Z,17.13
2022-07-31T18:57:12.954Z,15.93
2022-07-31T19:00:17.767Z,17.70
2022-07-31T19:03:21.486Z,16.20
2022-07-31T19:06:25.067Z,16.23
2022-07-31T19:09:30.550Z,16.60
2022-07-31T19:12:34.186Z,15.33
2022-07-31T19:15:38.460Z,16.60
2022-07-31T19:18:42.463Z,16.27
2022-07-31T19:21:47.536Z,16.03
2022-07-31T19:24:52.615Z,16.43
2022-07-31T19:27:56.564Z,16.97
2022-07-31T19:31:01.124Z,17.60
2022-07-31T19:34:04.758Z,17.43
2022-07-31T19:37:09.780Z,17.13
2022-07-31T19:40:15.194Z,17.47
2022-07-31T19:43:20.156Z,16.83
2022-07-31T19:46:24.202Z,18.77
2022-07-31T19:49:27.892Z,17.90
2022-07-31T19:52:31.838Z,19.20
2022-07-31T19:55:37.749Z,17.63
2022-07-31T19:58:42.404Z,19.10
2022-07-31T20:01:46.100Z,17.73
2022-07-31T20:04:49.819Z,17.93
2022-07-31T20:07:53.496Z,19.50
2022-07-31T20:10:59.660Z,19.40
2022-07-31T20:14:03.373Z,19.47
2022-07-31T20:17:07.131Z,19.20
2022-07-31T20:20:15.380Z,20.67
2022-07-31T20:23:19.642Z,20.90
2022-07-31T20:26:25.135Z,20.77
2022-07-31T20:29:28.815Z,21.50
2022-07-31T20:32:33.152Z,21.37
2022-07-31T20:35:47.968Z,22.27
2022-07-31T20:38:53.535Z,22.80
2022-07-31T20:41:59.535Z,23.17
2022-07-31T20:45:03.177Z,22.90
2022-07-31T20:48:07.935Z,23.57
2022-07-31T20:51:16.061Z,22.03
2022-07-31T20:54:20.276Z,20.03
2022-07-31T20:57:40.376Z,20.50
2022-07-31T21:00:43.991Z,19.77
2022-07-31T21:03:48.043Z,18.77
2022-07-31T21:06:51.788Z,16.57
2022-07-31T21:09:55.362Z,15.97
2022-07-31T21:13:00.436Z,14.50
2022-07-31T21:16:04.915Z,11.90
2022-07-31T21:19:09.779Z,10.57
2022-07-31T21:22:13.966Z,11.30
2022-07-31T21:25:18.240Z,8.03
2022-07-31T21:28:25.228Z,8.30
2022-07-31T21:31:29.600Z,8.07
2022-07-31T21:34:33.990Z,7.80
2022-07-31T21:37:39.985Z,8.40
2022-07-31T21:40:45.267Z,8.73
2022-07-31T21:43:58.840Z,8.63
2022-07-31T21:47:04.388Z,8.97
2022-07-31T21:50:09.848Z,8.90
2022-07-31T21:53:14.499Z,9.27
2022-07-31T21:56:18.226Z,9.87
2022-07-31T21:59:23.399Z,9.77
2022-07-31T22:02:27.454Z,9.30
2022-07-31T22:05:48.636Z,8.70
2022-07-31T22:08:52.368Z,8.90
2022-07-31T22:12:01.277Z,8.23
2022-07-31T22:15:11.261Z,7.43
2022-07-31T22:18:19.625Z,6.67
2022-07-31T22:21:24.407Z,6.27
2022-07-31T22:24:28.631Z,5.30
2022-07-31T22:27:51.037Z,4.50
2022-07-31T22:30:58.448Z,3.63
2022-07-31T22:34:02.438Z,3.73
2022-07-31T22:37:07.651Z,3.23
2022-07-31T22:40:13.307Z,2.93
2022-07-31T22:44:10.200Z,2.77
2022-07-31T22:46:43.004Z,2.57
2022-07-31T22:49:47.214Z,2.50
2022-07-31T22:52:51.060Z,2.30
2022-07-31T22:55:55.178Z,2.53
2022-07-31T22:58:58.934Z,2.60
2022-07-31T23:02:04.700Z,2.53
2022-07-31T23:05:10.326Z,2.43
2022-07-31T23:08:13.932Z,2.90
2022-07-31T23:11:18.137Z,3.33
2022-07-31T23:14:22.062Z,2.83
2022-07-31T23:17:27.084Z,2.97
2022-07-31T23:20:30.766Z,3.40
2022-07-31T23:23:34.532Z,2.83
2022-07-31T23:26:38.272Z,3.03
2022-07-31T23:29:42.000Z,3.03
2022-07-31T23:32:46.991Z,3.50
2022-07-31T23:35:50.713Z,2.93
2022-07-31T23:38:54.422Z,3.70
2022-07-31T23:42:15.471Z,3.10
2022-07-31T23:45:19.130Z,3.43
2022-07-31T23:48:29.275Z,3.70
2022-07-31T23:51:33.816Z,4.03
2022-07-31T23:54:37.563Z,4.50
2022-07-31T23:57:41.396Z,4.17
